Time;durP1;ratioP1;P1;durP2;ratioP2;P2;SDS_P1;SDS_P2;PMS_P1;PMS_P2;Temp;Humidity;BMP_temperature;BMP_pressure;BME280_temperature;BME280_humidity;BME280_pressure;Samples;Min_cycle;Max_cycle;Signal;HPM_P1;HPM_P2
2022/07/20 08:58:31;;;;;;;10.00;5.85;;;27.80;75.40;;;;;;6311978;22;20442;-96
2022/07/20 13:02:12;;;;;;;6.90;4.40;;;31.10;65.20;;;;;;6337028;22;20019;-93
2022/07/20 13:22:45;;;;;;;8.20;5.18;;;31.20;64.30;;;;;;6359245;22;20023;-96
2022/07/20 13:29:24;;;;;;;9.57;5.32;;;31.40;64.40;;;;;;6362360;22;20018;-90
2022/07/20 13:31:50;;;;;;;7.75;4.90;;;31.30;64.50;;;;;;6228419;22;20035;-92
2022/07/20 14:20:01;;;;;;;4.13;2.50;;;31.30;63.80;;;;;;6316567;22;20023;-92
2022/07/20 15:15:47;;;;;;;4.97;2.72;;;30.00;65.60;;;;;;6322938;22;20023;-92
2022/07/20 18:13:40;;;;;;;6.07;2.50;;;25.60;79.40;;;;;;6326343;22;20094;-92
2022/07/20 18:16:08;;;;;;;5.38;2.47;;;25.50;79.70;;;;;;6311300;22;20022;-91
2022/07/20 18:18:38;;;;;;;6.20;3.05;;;25.50;79.80;;;;;;6312601;22;20108;-91
2022/07/20 18:21:51;;;;;;;5.35;2.63;;;25.50;80.20;;;;;;6316587;22;20023;-92
2022/07/20 18:27:13;;;;;;;8.00;2.50;;;25.40;80.40;;;;;;6313167;22;20026;-90
2022/07/20 18:30:32;;;;;;;6.38;2.80;;;25.40;80.20;;;;;;6286754;22;20019;-92
2022/07/20 18:43:27;;;;;;;3.85;1.90;;;25.20;80.80;;;;;;6342977;22;20467;-90
2022/07/20 18:46:04;;;;;;;4.07;2.15;;;25.20;80.70;;;;;;6329609;22;20022;-89
2022/07/20 18:48:36;;;;;;;8.70;2.03;;;25.20;80.50;;;;;;6316225;22;20068;-90
2022/07/20 18:51:04;;;;;;;4.60;2.17;;;25.20;80.70;;;;;;6315148;22;20129;-91
2022/07/20 18:53:30;;;;;;;3.72;1.90;;;25.20;80.80;;;;;;6290923;22;20015;-91
2022/07/20 18:55:57;;;;;;;4.32;1.83;;;25.10;81.00;;;;;;6294624;22;20094;-90
2022/07/20 18:58:23;;;;;;;5.35;2.10;;;25.10;81.10;;;;;;6271002;22;20019;-90
2022/07/20 19:00:52;;;;;;;4.65;2.17;;;25.10;81.20;;;;;;6292548;22;20093;-92
2022/07/20 19:03:18;;;;;;;4.93;2.50;;;25.10;81.40;;;;;;6266032;22;20026;-91
2022/07/20 19:05:48;;;;;;;5.25;2.38;;;25.10;82.00;;;;;;6293463;22;20018;-93
2022/07/20 19:23:52;;;;;;;6.38;2.55;;;24.40;85.20;;;;;;6337932;22;20019;-91
2022/07/20 19:26:19;;;;;;;4.60;1.83;;;24.40;85.40;;;;;;6263191;22;20030;-91
2022/07/20 19:28:46;;;;;;;5.07;2.15;;;24.30;85.80;;;;;;6317550;22;20021;-91
2022/07/20 19:31:14;;;;;;;4.05;1.98;;;24.30;86.10;;;;;;6240813;22;20049;-93
2022/07/20 19:33:39;;;;;;;5.10;1.80;;;24.20;86.40;;;;;;6266065;22;20022;-91
2022/07/20 19:36:07;;;;;;;4.07;1.98;;;24.20;86.20;;;;;;6263868;22;20019;-94
2022/07/20 19:38:33;;;;;;;4.05;1.80;;;24.20;86.50;;;;;;6264637;22;20086;-90
2022/07/20 19:41:00;;;;;;;3.97;1.63;;;24.10;86.70;;;;;;6293528;22;20393;-91
2022/07/20 19:43:33;;;;;;;4.13;1.80;;;24.10;86.80;;;;;;6292223;22;20015;-91
2022/07/20 19:45:59;;;;;;;3.97;1.60;;;24.10;86.90;;;;;;6288954;22;20018;-91
2022/07/20 19:48:33;;;;;;;3.60;1.65;;;24.10;87.00;;;;;;6317386;22;20019;-90
2022/07/20 19:51:02;;;;;;;2.88;1.25;;;24.10;87.50;;;;;;6295795;22;20114;-91
2022/07/20 19:53:28;;;;;;;5.05;1.33;;;24.10;88.00;;;;;;6292829;22;20096;-91
2022/07/20 19:55:54;;;;;;;3.70;1.40;;;24.10;88.30;;;;;;6289297;22;20019;-91
2022/07/20 19:58:20;;;;;;;5.35;1.70;;;24.10;88.70;;;;;;6257360;22;20016;-92
2022/07/20 20:00:46;;;;;;;3.67;1.50;;;24.00;89.00;;;;;;6256128;22;20058;-91
2022/07/20 20:03:13;;;;;;;;;;;24.00;89.30;;;;;;6259321;22;20019;-92
2022/07/20 20:05:40;;;;;;;3.72;1.50;;;23.90;90.60;;;;;;6281257;22;19970;-93
2022/07/20 20:08:07;;;;;;;5.03;1.80;;;23.90;89.90;;;;;;6281586;22;20452;-91
2022/07/20 20:10:33;;;;;;;4.30;1.52;;;23.90;89.30;;;;;;6306326;22;20104;-92
2022/07/20 20:13:00;;;;;;;;;;;23.90;89.40;;;;;;6286017;22;20023;-92
